Hlavní strana
METAR-TAF:

METAR-TAF

Letiště :

Middleton Field

Evergreen, Alabama, Spojené státy americké

zeměpisná šířka: 31-25-08N, zeměpisná délka: 087-02-53W, výška: 78 m

Aktuální stav počasí

Zpráva byla vytvořena před 11 minutami, v 10:53 UTC
Bezvětří
Teplota 21°C
Vlhkost vzduchu 88%
Tlak 1021 hPa
Viditelnost: 0.4 km
mlha

METAR: KGZH 241053Z AUTO 00000KT 1/4SM FG VV002 21/19 A3015 RMK AO2 SLP205 T02060189

Čas: 06:04 (11:04 UTC)


TAF: chybějící

Stav a předpovědi počasí z více než 4 000 letišť (zprávy METAR a TAF).

Červené a žluté tečky na mapě představují dostupné meteorologické stanice.

Když kurzor umístíte na tečku, zobrazí se název stanice.

Pak kliknutím zobrazíte stav a předpověď počasí.

Chcete-li změnit mapu, kliknutím na zelené tlačítko se znaménkem +mapu přiblížíte, kliknutím na zelené tlačítko se znaménkem – mapu oddálíte a kliknutím na zelené šipky přejdete na sousední mapy.


METAR-TAF: